sensor_id;sensor_type;location;lat;lon;timestamp;P1;durP1;ratioP1;P2;durP2;ratioP2
43809;SDS011;29440;48.208;11.162;2022-08-19T00:00:09;7.63;;;5.43;;
43809;SDS011;29440;48.208;11.162;2022-08-19T00:02:36;8.77;;;6.28;;
43809;SDS011;29440;48.208;11.162;2022-08-19T00:05:02;10.68;;;7.80;;
43809;SDS011;29440;48.208;11.162;2022-08-19T00:07:30;9.57;;;6.93;;
43809;SDS011;29440;48.208;11.162;2022-08-19T00:09:55;8.05;;;6.75;;
43809;SDS011;29440;48.208;11.162;2022-08-19T00:12:21;9.32;;;7.32;;
43809;SDS011;29440;48.208;11.162;2022-08-19T00:14:46;8.50;;;6.35;;
43809;SDS011;29440;48.208;11.162;2022-08-19T00:17:12;7.60;;;5.97;;
43809;SDS011;29440;48.208;11.162;2022-08-19T00:19:38;9.00;;;7.00;;
43809;SDS011;29440;48.208;11.162;2022-08-19T00:22:05;9.35;;;7.57;;
43809;SDS011;29440;48.208;11.162;2022-08-19T00:24:33;10.02;;;7.28;;
43809;SDS011;29440;48.208;11.162;2022-08-19T00:27:00;14.48;;;9.57;;
43809;SDS011;29440;48.208;11.162;2022-08-19T00:29:27;11.38;;;8.48;;
43809;SDS011;29440;48.208;11.162;2022-08-19T00:31:53;12.07;;;9.50;;
43809;SDS011;29440;48.208;11.162;2022-08-19T00:34:19;15.05;;;9.65;;
43809;SDS011;29440;48.208;11.162;2022-08-19T00:36:46;12.15;;;9.13;;
43809;SDS011;29440;48.208;11.162;2022-08-19T00:39:13;12.45;;;8.93;;
43809;SDS011;29440;48.208;11.162;2022-08-19T00:41:40;12.45;;;9.15;;
43809;SDS011;29440;48.208;11.162;2022-08-19T00:44:10;11.40;;;9.40;;
43809;SDS011;29440;48.208;11.162;2022-08-19T00:46:39;11.18;;;8.82;;
43809;SDS011;29440;48.208;11.162;2022-08-19T00:49:09;12.02;;;8.88;;
43809;SDS011;29440;48.208;11.162;2022-08-19T00:51:41;12.23;;;9.32;;
43809;SDS011;29440;48.208;11.162;2022-08-19T00:54:09;12.80;;;8.40;;
43809;SDS011;29440;48.208;11.162;2022-08-19T00:56:35;13.25;;;8.77;;
43809;SDS011;29440;48.208;11.162;2022-08-19T00:59:01;14.23;;;9.05;;
43809;SDS011;29440;48.208;11.162;2022-08-19T01:01:28;13.25;;;9.45;;
43809;SDS011;29440;48.208;11.162;2022-08-19T01:03:53;12.40;;;8.80;;
43809;SDS011;29440;48.208;11.162;2022-08-19T01:06:19;10.05;;;7.95;;
43809;SDS011;29440;48.208;11.162;2022-08-19T01:08:45;12.85;;;9.48;;
43809;SDS011;29440;48.208;11.162;2022-08-19T01:11:11;12.95;;;8.90;;
43809;SDS011;29440;48.208;11.162;2022-08-19T01:13:37;11.93;;;9.57;;
43809;SDS011;29440;48.208;11.162;2022-08-19T01:16:07;11.85;;;9.32;;
43809;SDS011;29440;48.208;11.162;2022-08-19T01:18:35;11.63;;;8.85;;
43809;SDS011;29440;48.208;11.162;2022-08-19T01:21:08;13.23;;;10.60;;
43809;SDS011;29440;48.208;11.162;2022-08-19T01:23:40;16.08;;;10.98;;
43809;SDS011;29440;48.208;11.162;2022-08-19T01:26:20;13.43;;;10.88;;
43809;SDS011;29440;48.208;11.162;2022-08-19T01:28:48;17.17;;;11.05;;
43809;SDS011;29440;48.208;11.162;2022-08-19T01:31:18;11.93;;;9.23;;
43809;SDS011;29440;48.208;11.162;2022-08-19T01:33:49;15.32;;;11.00;;
43809;SDS011;29440;48.208;11.162;2022-08-19T01:36:25;12.15;;;9.93;;
43809;SDS011;29440;48.208;11.162;2022-08-19T01:38:55;14.45;;;10.82;;
43809;SDS011;29440;48.208;11.162;2022-08-19T01:41:21;12.75;;;9.68;;
43809;SDS011;29440;48.208;11.162;2022-08-19T01:43:47;14.07;;;10.13;;
43809;SDS011;29440;48.208;11.162;2022-08-19T01:46:13;14.27;;;9.80;;
43809;SDS011;29440;48.208;11.162;2022-08-19T01:48:40;15.25;;;10.98;;
43809;SDS011;29440;48.208;11.162;2022-08-19T01:51:07;14.57;;;10.43;;
43809;SDS011;29440;48.208;11.162;2022-08-19T01:53:33;11.38;;;9.38;;
43809;SDS011;29440;48.208;11.162;2022-08-19T01:55:59;15.48;;;11.70;;
43809;SDS011;29440;48.208;11.162;2022-08-19T01:58:27;15.55;;;10.65;;
43809;SDS011;29440;48.208;11.162;2022-08-19T02:00:57;13.25;;;10.13;;
43809;SDS011;29440;48.208;11.162;2022-08-19T02:03:23;13.55;;;9.20;;
43809;SDS011;29440;48.208;11.162;2022-08-19T02:05:53;13.40;;;9.95;;
43809;SDS011;29440;48.208;11.162;2022-08-19T02:08:20;13.65;;;10.60;;
43809;SDS011;29440;48.208;11.162;2022-08-19T02:10:45;14.45;;;10.07;;
43809;SDS011;29440;48.208;11.162;2022-08-19T02:13:12;12.32;;;8.93;;
43809;SDS011;29440;48.208;11.162;2022-08-19T02:15:38;12.60;;;9.32;;
43809;SDS011;29440;48.208;11.162;2022-08-19T02:18:04;12.13;;;9.63;;
43809;SDS011;29440;48.208;11.162;2022-08-19T02:20:32;12.40;;;9.60;;
43809;SDS011;29440;48.208;11.162;2022-08-19T02:22:57;11.77;;;8.45;;
43809;SDS011;29440;48.208;11.162;2022-08-19T02:25:23;12.48;;;9.20;;
43809;SDS011;29440;48.208;11.162;2022-08-19T02:27:48;12.07;;;9.10;;
43809;SDS011;29440;48.208;11.162;2022-08-19T02:30:15;11.45;;;9.68;;
43809;SDS011;29440;48.208;11.162;2022-08-19T02:32:41;15.07;;;9.73;;
43809;SDS011;29440;48.208;11.162;2022-08-19T02:35:07;14.65;;;9.25;;
43809;SDS011;29440;48.208;11.162;2022-08-19T02:37:33;12.25;;;9.00;;
43809;SDS011;29440;48.208;11.162;2022-08-19T02:40:18;13.70;;;8.88;;
43809;SDS011;29440;48.208;11.162;2022-08-19T02:42:44;12.15;;;9.32;;
43809;SDS011;29440;48.208;11.162;2022-08-19T02:45:10;13.18;;;9.70;;
43809;SDS011;29440;48.208;11.162;2022-08-19T02:47:38;14.65;;;9.73;;
43809;SDS011;29440;48.208;11.162;2022-08-19T02:50:04;14.25;;;10.45;;
43809;SDS011;29440;48.208;11.162;2022-08-19T02:52:31;14.38;;;10.52;;
43809;SDS011;29440;48.208;11.162;2022-08-19T02:54:58;15.23;;;9.95;;
43809;SDS011;29440;48.208;11.162;2022-08-19T02:57:23;15.73;;;10.75;;
43809;SDS011;29440;48.208;11.162;2022-08-19T02:59:49;13.85;;;10.65;;
43809;SDS011;29440;48.208;11.162;2022-08-19T03:02:15;15.82;;;11.73;;
43809;SDS011;29440;48.208;11.162;2022-08-19T03:04:41;15.55;;;10.82;;
43809;SDS011;29440;48.208;11.162;2022-08-19T03:07:07;14.15;;;10.75;;
43809;SDS011;29440;48.208;11.162;2022-08-19T03:09:32;13.13;;;9.45;;
43809;SDS011;29440;48.208;11.162;2022-08-19T03:12:01;15.38;;;10.80;;
43809;SDS011;29440;48.208;11.162;2022-08-19T03:14:30;16.65;;;12.80;;
43809;SDS011;29440;48.208;11.162;2022-08-19T03:16:56;16.83;;;11.70;;
43809;SDS011;29440;48.208;11.162;2022-08-19T03:19:22;17.20;;;11.98;;
43809;SDS011;29440;48.208;11.162;2022-08-19T03:21:48;16.17;;;11.93;;
43809;SDS011;29440;48.208;11.162;2022-08-19T03:24:15;17.10;;;12.35;;
43809;SDS011;29440;48.208;11.162;2022-08-19T03:26:43;14.30;;;10.00;;
43809;SDS011;29440;48.208;11.162;2022-08-19T03:29:13;16.95;;;11.98;;
43809;SDS011;29440;48.208;11.162;2022-08-19T03:31:40;16.00;;;12.30;;
43809;SDS011;29440;48.208;11.162;2022-08-19T03:34:08;17.02;;;12.65;;
43809;SDS011;29440;48.208;11.162;2022-08-19T03:36:38;16.15;;;12.73;;
43809;SDS011;29440;48.208;11.162;2022-08-19T03:39:04;15.77;;;12.18;;
43809;SDS011;29440;48.208;11.162;2022-08-19T03:41:31;16.67;;;12.55;;
43809;SDS011;29440;48.208;11.162;2022-08-19T03:44:01;16.98;;;11.35;;
43809;SDS011;29440;48.208;11.162;2022-08-19T03:46:30;15.95;;;11.57;;
43809;SDS011;29440;48.208;11.162;2022-08-19T03:48:57;15.73;;;11.27;;
43809;SDS011;29440;48.208;11.162;2022-08-19T03:51:26;16.00;;;12.18;;
43809;SDS011;29440;48.208;11.162;2022-08-19T03:53:56;15.80;;;11.80;;
43809;SDS011;29440;48.208;11.162;2022-08-19T03:56:24;14.52;;;10.98;;
43809;SDS011;29440;48.208;11.162;2022-08-19T03:58:51;15.18;;;11.98;;
43809;SDS011;29440;48.208;11.162;2022-08-19T04:01:18;16.02;;;12.48;;
43809;SDS011;29440;48.208;11.162;2022-08-19T04:03:45;16.15;;;12.57;;
43809;SDS011;29440;48.208;11.162;2022-08-19T04:06:30;16.70;;;12.30;;
43809;SDS011;29440;48.208;11.162;2022-08-19T04:09:00;17.67;;;11.98;;
43809;SDS011;29440;48.208;11.162;2022-08-19T04:11:29;19.45;;;14.30;;
43809;SDS011;29440;48.208;11.162;2022-08-19T04:13:56;19.08;;;13.38;;
43809;SDS011;29440;48.208;11.162;2022-08-19T04:16:23;18.55;;;14.13;;
43809;SDS011;29440;48.208;11.162;2022-08-19T04:18:50;18.05;;;12.70;;
43809;SDS011;29440;48.208;11.162;2022-08-19T04:21:17;19.40;;;13.27;;
43809;SDS011;29440;48.208;11.162;2022-08-19T04:23:45;15.55;;;11.82;;
43809;SDS011;29440;48.208;11.162;2022-08-19T04:26:18;19.23;;;14.82;;
43809;SDS011;29440;48.208;11.162;2022-08-19T04:28:47;22.48;;;14.98;;
43809;SDS011;29440;48.208;11.162;2022-08-19T04:31:28;20.27;;;14.98;;
43809;SDS011;29440;48.208;11.162;2022-08-19T04:33:56;20.52;;;16.77;;
43809;SDS011;29440;48.208;11.162;2022-08-19T04:36:25;23.27;;;17.27;;
43809;SDS011;29440;48.208;11.162;2022-08-19T04:38:54;19.70;;;14.80;;
43809;SDS011;29440;48.208;11.162;2022-08-19T04:41:22;23.05;;;16.92;;
43809;SDS011;29440;48.208;11.162;2022-08-19T04:44:06;22.48;;;17.13;;
43809;SDS011;29440;48.208;11.162;2022-08-19T04:46:32;25.35;;;17.75;;
43809;SDS011;29440;48.208;11.162;2022-08-19T04:48:58;18.77;;;14.32;;
43809;SDS011;29440;48.208;11.162;2022-08-19T04:51:24;20.75;;;15.60;;
43809;SDS011;29440;48.208;11.162;2022-08-19T04:53:50;22.02;;;16.73;;
43809;SDS011;29440;48.208;11.162;2022-08-19T04:56:17;20.58;;;15.07;;
43809;SDS011;29440;48.208;11.162;2022-08-19T04:58:51;20.73;;;15.52;;
43809;SDS011;29440;48.208;11.162;2022-08-19T05:01:19;23.02;;;16.55;;
43809;SDS011;29440;48.208;11.162;2022-08-19T05:03:48;22.45;;;16.50;;
43809;SDS011;29440;48.208;11.162;2022-08-19T05:06:14;21.85;;;16.80;;
43809;SDS011;29440;48.208;11.162;2022-08-19T05:08:42;22.95;;;18.88;;
43809;SDS011;29440;48.208;11.162;2022-08-19T05:13:45;23.00;;;16.80;;
43809;SDS011;29440;48.208;11.162;2022-08-19T05:16:12;21.95;;;17.17;;
43809;SDS011;29440;48.208;11.162;2022-08-19T05:18:39;21.27;;;16.42;;
43809;SDS011;29440;48.208;11.162;2022-08-19T05:21:29;23.38;;;18.20;;
43809;SDS011;29440;48.208;11.162;2022-08-19T05:24:13;25.40;;;17.40;;
43809;SDS011;29440;48.208;11.162;2022-08-19T05:26:44;23.73;;;17.88;;
43809;SDS011;29440;48.208;11.162;2022-08-19T05:29:12;23.52;;;16.63;;
43809;SDS011;29440;48.208;11.162;2022-08-19T05:31:39;23.25;;;17.80;;
43809;SDS011;29440;48.208;11.162;2022-08-19T05:34:05;24.98;;;19.10;;
43809;SDS011;29440;48.208;11.162;2022-08-19T05:36:33;24.75;;;18.27;;
43809;SDS011;29440;48.208;11.162;2022-08-19T05:39:03;24.30;;;17.42;;
43809;SDS011;29440;48.208;11.162;2022-08-19T05:41:29;25.52;;;19.45;;
43809;SDS011;29440;48.208;11.162;2022-08-19T05:44:01;25.48;;;17.90;;
43809;SDS011;29440;48.208;11.162;2022-08-19T05:46:30;24.00;;;18.80;;
43809;SDS011;29440;48.208;11.162;2022-08-19T05:48:57;25.70;;;18.23;;
43809;SDS011;29440;48.208;11.162;2022-08-19T05:51:24;22.90;;;18.65;;
43809;SDS011;29440;48.208;11.162;2022-08-19T05:53:50;22.40;;;17.55;;
43809;SDS011;29440;48.208;11.162;2022-08-19T05:56:16;24.00;;;18.35;;
43809;SDS011;29440;48.208;11.162;2022-08-19T05:58:43;26.20;;;19.55;;
43809;SDS011;29440;48.208;11.162;2022-08-19T06:01:17;26.33;;;18.35;;
43809;SDS011;29440;48.208;11.162;2022-08-19T06:03:44;28.35;;;20.25;;
43809;SDS011;29440;48.208;11.162;2022-08-19T06:06:10;25.17;;;20.10;;
43809;SDS011;29440;48.208;11.162;2022-08-19T06:08:40;22.75;;;17.65;;
43809;SDS011;29440;48.208;11.162;2022-08-19T06:14:06;24.83;;;18.73;;
43809;SDS011;29440;48.208;11.162;2022-08-19T06:16:34;27.35;;;19.70;;
43809;SDS011;29440;48.208;11.162;2022-08-19T06:19:04;25.50;;;17.63;;
43809;SDS011;29440;48.208;11.162;2022-08-19T06:21:32;26.38;;;18.92;;
43809;SDS011;29440;48.208;11.162;2022-08-19T06:24:00;28.10;;;19.17;;
43809;SDS011;29440;48.208;11.162;2022-08-19T06:26:25;26.02;;;19.08;;
43809;SDS011;29440;48.208;11.162;2022-08-19T06:28:51;23.50;;;18.73;;
43809;SDS011;29440;48.208;11.162;2022-08-19T06:31:21;27.15;;;20.08;;
43809;SDS011;29440;48.208;11.162;2022-08-19T06:33:50;27.08;;;19.88;;
43809;SDS011;29440;48.208;11.162;2022-08-19T06:36:20;31.13;;;19.67;;
43809;SDS011;29440;48.208;11.162;2022-08-19T06:38:52;28.85;;;20.70;;
43809;SDS011;29440;48.208;11.162;2022-08-19T06:41:19;24.70;;;18.73;;
43809;SDS011;29440;48.208;11.162;2022-08-19T06:43:45;26.52;;;18.98;;
43809;SDS011;29440;48.208;11.162;2022-08-19T06:46:14;27.20;;;19.83;;
43809;SDS011;29440;48.208;11.162;2022-08-19T06:48:43;25.85;;;19.13;;
43809;SDS011;29440;48.208;11.162;2022-08-19T06:51:13;27.52;;;20.05;;
43809;SDS011;29440;48.208;11.162;2022-08-19T06:53:43;23.95;;;17.63;;
43809;SDS011;29440;48.208;11.162;2022-08-19T06:56:14;26.08;;;19.05;;
43809;SDS011;29440;48.208;11.162;2022-08-19T06:58:41;23.23;;;17.55;;
43809;SDS011;29440;48.208;11.162;2022-08-19T07:01:07;27.33;;;19.88;;
43809;SDS011;29440;48.208;11.162;2022-08-19T07:03:34;26.50;;;19.77;;
43809;SDS011;29440;48.208;11.162;2022-08-19T07:06:19;27.23;;;19.40;;
43809;SDS011;29440;48.208;11.162;2022-08-19T07:08:46;27.27;;;19.48;;
43809;SDS011;29440;48.208;11.162;2022-08-19T07:11:13;29.38;;;20.13;;
43809;SDS011;29440;48.208;11.162;2022-08-19T07:13:42;28.58;;;19.85;;
43809;SDS011;29440;48.208;11.162;2022-08-19T07:16:11;25.60;;;18.48;;
43809;SDS011;29440;48.208;11.162;2022-08-19T07:18:39;26.85;;;20.00;;
43809;SDS011;29440;48.208;11.162;2022-08-19T07:21:10;25.52;;;18.67;;
43809;SDS011;29440;48.208;11.162;2022-08-19T07:23:39;28.95;;;20.33;;
43809;SDS011;29440;48.208;11.162;2022-08-19T07:28:41;34.88;;;22.83;;
43809;SDS011;29440;48.208;11.162;2022-08-19T07:31:10;30.42;;;21.48;;
43809;SDS011;29440;48.208;11.162;2022-08-19T07:33:38;35.60;;;21.73;;
43809;SDS011;29440;48.208;11.162;2022-08-19T07:36:05;35.55;;;20.67;;
43809;SDS011;29440;48.208;11.162;2022-08-19T07:38:33;32.05;;;21.25;;
43809;SDS011;29440;48.208;11.162;2022-08-19T07:40:59;34.17;;;21.85;;
43809;SDS011;29440;48.208;11.162;2022-08-19T07:43:25;31.13;;;20.75;;
43809;SDS011;29440;48.208;11.162;2022-08-19T07:45:52;35.75;;;23.52;;
43809;SDS011;29440;48.208;11.162;2022-08-19T07:48:21;34.92;;;22.67;;
43809;SDS011;29440;48.208;11.162;2022-08-19T07:50:50;32.88;;;22.25;;
43809;SDS011;29440;48.208;11.162;2022-08-19T07:53:17;32.13;;;23.05;;
43809;SDS011;29440;48.208;11.162;2022-08-19T07:55:44;35.25;;;22.70;;
43809;SDS011;29440;48.208;11.162;2022-08-19T07:58:14;38.55;;;22.95;;
43809;SDS011;29440;48.208;11.162;2022-08-19T08:00:42;37.88;;;24.15;;
43809;SDS011;29440;48.208;11.162;2022-08-19T08:03:09;36.60;;;25.27;;
43809;SDS011;29440;48.208;11.162;2022-08-19T08:05:35;38.63;;;24.08;;
43809;SDS011;29440;48.208;11.162;2022-08-19T08:08:19;46.78;;;25.95;;
43809;SDS011;29440;48.208;11.162;2022-08-19T08:11:04;40.13;;;25.23;;
43809;SDS011;29440;48.208;11.162;2022-08-19T08:13:30;31.42;;;22.27;;
43809;SDS011;29440;48.208;11.162;2022-08-19T08:15:56;36.70;;;25.90;;
43809;SDS011;29440;48.208;11.162;2022-08-19T08:18:23;39.45;;;25.33;;
43809;SDS011;29440;48.208;11.162;2022-08-19T08:20:49;42.30;;;26.63;;
43809;SDS011;29440;48.208;11.162;2022-08-19T08:23:15;42.47;;;25.50;;
43809;SDS011;29440;48.208;11.162;2022-08-19T08:25:47;42.40;;;26.45;;
43809;SDS011;29440;48.208;11.162;2022-08-19T08:28:14;39.42;;;24.83;;
43809;SDS011;29440;48.208;11.162;2022-08-19T08:30:40;41.28;;;25.77;;
43809;SDS011;29440;48.208;11.162;2022-08-19T08:33:10;37.30;;;24.88;;
43809;SDS011;29440;48.208;11.162;2022-08-19T08:35:35;40.50;;;25.05;;
43809;SDS011;29440;48.208;11.162;2022-08-19T08:38:01;43.13;;;26.90;;
43809;SDS011;29440;48.208;11.162;2022-08-19T08:43:07;39.80;;;24.92;;
43809;SDS011;29440;48.208;11.162;2022-08-19T08:45:50;41.03;;;24.50;;
43809;SDS011;29440;48.208;11.162;2022-08-19T08:48:24;41.30;;;26.55;;
43809;SDS011;29440;48.208;11.162;2022-08-19T08:50:58;41.72;;;25.92;;
43809;SDS011;29440;48.208;11.162;2022-08-19T08:53:28;40.97;;;26.27;;
43809;SDS011;29440;48.208;11.162;2022-08-19T08:55:56;32.88;;;21.27;;
43809;SDS011;29440;48.208;11.162;2022-08-19T08:58:49;31.10;;;21.42;;
43809;SDS011;29440;48.208;11.162;2022-08-19T09:01:22;35.50;;;22.77;;
43809;SDS011;29440;48.208;11.162;2022-08-19T09:03:48;29.33;;;18.88;;
43809;SDS011;29440;48.208;11.162;2022-08-19T09:06:18;18.85;;;12.85;;
43809;SDS011;29440;48.208;11.162;2022-08-19T09:11:35;13.85;;;9.15;;
43809;SDS011;29440;48.208;11.162;2022-08-19T09:17:07;10.13;;;7.95;;
43809;SDS011;29440;48.208;11.162;2022-08-19T09:19:34;9.65;;;6.70;;
43809;SDS011;29440;48.208;11.162;2022-08-19T09:22:11;8.20;;;6.38;;
43809;SDS011;29440;48.208;11.162;2022-08-19T09:24:37;8.75;;;6.30;;
43809;SDS011;29440;48.208;11.162;2022-08-19T09:27:03;10.32;;;7.15;;
43809;SDS011;29440;48.208;11.162;2022-08-19T09:29:29;9.77;;;7.15;;
43809;SDS011;29440;48.208;11.162;2022-08-19T09:31:55;10.00;;;6.63;;
43809;SDS011;29440;48.208;11.162;2022-08-19T09:34:21;17.50;;;11.45;;
43809;SDS011;29440;48.208;11.162;2022-08-19T09:36:46;14.35;;;10.13;;
43809;SDS011;29440;48.208;11.162;2022-08-19T09:39:18;13.13;;;10.57;;
43809;SDS011;29440;48.208;11.162;2022-08-19T09:41:44;12.43;;;8.63;;
43809;SDS011;29440;48.208;11.162;2022-08-19T09:44:09;14.95;;;9.50;;
43809;SDS011;29440;48.208;11.162;2022-08-19T09:46:37;12.63;;;8.55;;
43809;SDS011;29440;48.208;11.162;2022-08-19T09:49:02;15.15;;;10.35;;
43809;SDS011;29440;48.208;11.162;2022-08-19T09:51:31;13.23;;;9.82;;
43809;SDS011;29440;48.208;11.162;2022-08-19T09:54:03;15.70;;;10.73;;
43809;SDS011;29440;48.208;11.162;2022-08-19T09:56:30;15.75;;;11.25;;
43809;SDS011;29440;48.208;11.162;2022-08-19T09:59:00;13.80;;;8.93;;
43809;SDS011;29440;48.208;11.162;2022-08-19T10:01:27;14.27;;;10.35;;
43809;SDS011;29440;48.208;11.162;2022-08-19T10:03:55;13.90;;;10.23;;
43809;SDS011;29440;48.208;11.162;2022-08-19T10:06:24;11.35;;;8.85;;
43809;SDS011;29440;48.208;11.162;2022-08-19T10:08:54;13.18;;;8.80;;
43809;SDS011;29440;48.208;11.162;2022-08-19T10:11:19;12.73;;;9.10;;
43809;SDS011;29440;48.208;11.162;2022-08-19T10:13:46;15.25;;;9.57;;
43809;SDS011;29440;48.208;11.162;2022-08-19T10:16:14;14.02;;;9.93;;
43809;SDS011;29440;48.208;11.162;2022-08-19T10:18:42;12.20;;;8.45;;
43809;SDS011;29440;48.208;11.162;2022-08-19T10:21:15;13.02;;;7.50;;
43809;SDS011;29440;48.208;11.162;2022-08-19T10:23:43;10.40;;;7.32;;
43809;SDS011;29440;48.208;11.162;2022-08-19T10:26:14;8.02;;;6.03;;
43809;SDS011;29440;48.208;11.162;2022-08-19T10:28:45;6.95;;;4.80;;
43809;SDS011;29440;48.208;11.162;2022-08-19T10:31:13;6.32;;;4.88;;
43809;SDS011;29440;48.208;11.162;2022-08-19T10:33:42;6.68;;;4.68;;
43809;SDS011;29440;48.208;11.162;2022-08-19T10:36:11;6.78;;;4.20;;
43809;SDS011;29440;48.208;11.162;2022-08-19T10:38:49;5.22;;;4.10;;
43809;SDS011;29440;48.208;11.162;2022-08-19T10:41:17;4.68;;;3.25;;
43809;SDS011;29440;48.208;11.162;2022-08-19T10:43:49;4.35;;;3.40;;
43809;SDS011;29440;48.208;11.162;2022-08-19T10:46:17;4.05;;;3.10;;
43809;SDS011;29440;48.208;11.162;2022-08-19T10:48:43;3.75;;;2.65;;
43809;SDS011;29440;48.208;11.162;2022-08-19T10:51:09;3.67;;;2.78;;
43809;SDS011;29440;48.208;11.162;2022-08-19T10:54:05;6.72;;;2.95;;
43809;SDS011;29440;48.208;11.162;2022-08-19T10:56:31;3.63;;;2.40;;
43809;SDS011;29440;48.208;11.162;2022-08-19T10:59:17;3.40;;;2.30;;
43809;SDS011;29440;48.208;11.162;2022-08-19T11:01:48;3.92;;;2.30;;
43809;SDS011;29440;48.208;11.162;2022-08-19T11:04:15;4.75;;;3.00;;
43809;SDS011;29440;48.208;11.162;2022-08-19T11:06:46;4.00;;;2.80;;
43809;SDS011;29440;48.208;11.162;2022-08-19T11:09:18;5.88;;;2.55;;
43809;SDS011;29440;48.208;11.162;2022-08-19T11:11:49;2.65;;;2.30;;
43809;SDS011;29440;48.208;11.162;2022-08-19T11:14:16;3.33;;;2.20;;
43809;SDS011;29440;48.208;11.162;2022-08-19T11:16:46;2.85;;;2.17;;
43809;SDS011;29440;48.208;11.162;2022-08-19T11:19:13;7.95;;;2.40;;
43809;SDS011;29440;48.208;11.162;2022-08-19T11:21:43;2.08;;;1.75;;
43809;SDS011;29440;48.208;11.162;2022-08-19T11:24:12;2.03;;;1.40;;
43809;SDS011;29440;48.208;11.162;2022-08-19T11:26:40;3.80;;;1.83;;
43809;SDS011;29440;48.208;11.162;2022-08-19T11:29:09;2.45;;;1.85;;
43809;SDS011;29440;48.208;11.162;2022-08-19T11:31:37;2.08;;;1.60;;
43809;SDS011;29440;48.208;11.162;2022-08-19T11:34:05;3.33;;;2.30;;
43809;SDS011;29440;48.208;11.162;2022-08-19T11:36:33;2.67;;;2.28;;
43809;SDS011;29440;48.208;11.162;2022-08-19T11:38:59;4.25;;;2.35;;
43809;SDS011;29440;48.208;11.162;2022-08-19T11:41:26;4.00;;;2.42;;
43809;SDS011;29440;48.208;11.162;2022-08-19T11:43:53;5.75;;;3.22;;
43809;SDS011;29440;48.208;11.162;2022-08-19T11:46:20;4.55;;;3.60;;
43809;SDS011;29440;48.208;11.162;2022-08-19T11:48:48;4.93;;;3.63;;
43809;SDS011;29440;48.208;11.162;2022-08-19T11:51:16;4.80;;;3.65;;
43809;SDS011;29440;48.208;11.162;2022-08-19T11:53:44;4.82;;;3.33;;
43809;SDS011;29440;48.208;11.162;2022-08-19T11:56:10;3.83;;;3.13;;
43809;SDS011;29440;48.208;11.162;2022-08-19T11:58:36;2.83;;;2.13;;
43809;SDS011;29440;48.208;11.162;2022-08-19T12:01:07;5.30;;;3.08;;
43809;SDS011;29440;48.208;11.162;2022-08-19T12:03:33;4.43;;;3.15;;
43809;SDS011;29440;48.208;11.162;2022-08-19T12:06:07;3.72;;;2.80;;
43809;SDS011;29440;48.208;11.162;2022-08-19T12:08:35;3.30;;;2.25;;
43809;SDS011;29440;48.208;11.162;2022-08-19T12:11:01;2.97;;;2.35;;
43809;SDS011;29440;48.208;11.162;2022-08-19T12:13:28;3.03;;;2.40;;
43809;SDS011;29440;48.208;11.162;2022-08-19T12:15:55;3.13;;;2.72;;
43809;SDS011;29440;48.208;11.162;2022-08-19T12:18:21;2.72;;;1.95;;
43809;SDS011;29440;48.208;11.162;2022-08-19T12:20:46;3.40;;;2.63;;
43809;SDS011;29440;48.208;11.162;2022-08-19T12:23:12;3.03;;;2.00;;
43809;SDS011;29440;48.208;11.162;2022-08-19T12:25:46;2.92;;;2.03;;
43809;SDS011;29440;48.208;11.162;2022-08-19T12:28:16;3.15;;;2.00;;
43809;SDS011;29440;48.208;11.162;2022-08-19T12:30:46;2.47;;;1.65;;
43809;SDS011;29440;48.208;11.162;2022-08-19T12:33:13;1.30;;;1.08;;
43809;SDS011;29440;48.208;11.162;2022-08-19T12:35:39;1.83;;;1.30;;
43809;SDS011;29440;48.208;11.162;2022-08-19T12:38:07;1.42;;;1.33;;
43809;SDS011;29440;48.208;11.162;2022-08-19T12:40:32;3.08;;;2.15;;
43809;SDS011;29440;48.208;11.162;2022-08-19T12:42:58;2.13;;;1.40;;
43809;SDS011;29440;48.208;11.162;2022-08-19T12:45:24;2.65;;;1.88;;
43809;SDS011;29440;48.208;11.162;2022-08-19T12:47:49;2.90;;;2.30;;
43809;SDS011;29440;48.208;11.162;2022-08-19T12:50:16;3.75;;;2.03;;
43809;SDS011;29440;48.208;11.162;2022-08-19T12:52:42;3.10;;;2.75;;
43809;SDS011;29440;48.208;11.162;2022-08-19T12:55:08;5.00;;;2.88;;
43809;SDS011;29440;48.208;11.162;2022-08-19T12:57:35;3.00;;;2.70;;
43809;SDS011;29440;48.208;11.162;2022-08-19T13:00:18;4.53;;;3.33;;
43809;SDS011;29440;48.208;11.162;2022-08-19T13:02:47;3.30;;;2.70;;
43809;SDS011;29440;48.208;11.162;2022-08-19T13:05:18;2.75;;;2.42;;
43809;SDS011;29440;48.208;11.162;2022-08-19T13:07:51;2.78;;;2.25;;
43809;SDS011;29440;48.208;11.162;2022-08-19T13:10:21;2.40;;;2.00;;
43809;SDS011;29440;48.208;11.162;2022-08-19T13:12:48;4.15;;;2.13;;
43809;SDS011;29440;48.208;11.162;2022-08-19T13:15:16;2.47;;;1.50;;
43809;SDS011;29440;48.208;11.162;2022-08-19T13:17:45;2.50;;;1.55;;
43809;SDS011;29440;48.208;11.162;2022-08-19T13:20:15;1.75;;;1.40;;
43809;SDS011;29440;48.208;11.162;2022-08-19T13:22:42;10.90;;;1.63;;
43809;SDS011;29440;48.208;11.162;2022-08-19T13:25:09;3.25;;;1.20;;
43809;SDS011;29440;48.208;11.162;2022-08-19T13:27:35;1.38;;;0.98;;
43809;SDS011;29440;48.208;11.162;2022-08-19T13:30:02;1.10;;;0.88;;
43809;SDS011;29440;48.208;11.162;2022-08-19T13:32:48;1.40;;;0.88;;
43809;SDS011;29440;48.208;11.162;2022-08-19T13:35:33;1.20;;;0.80;;
43809;SDS011;29440;48.208;11.162;2022-08-19T13:37:59;1.73;;;0.90;;
43809;SDS011;29440;48.208;11.162;2022-08-19T13:40:26;1.27;;;0.93;;
43809;SDS011;29440;48.208;11.162;2022-08-19T13:42:53;1.20;;;0.90;;
43809;SDS011;29440;48.208;11.162;2022-08-19T13:45:21;1.33;;;0.88;;
43809;SDS011;29440;48.208;11.162;2022-08-19T13:47:50;1.10;;;0.80;;
43809;SDS011;29440;48.208;11.162;2022-08-19T13:50:18;1.20;;;0.80;;
43809;SDS011;29440;48.208;11.162;2022-08-19T13:52:46;2.38;;;1.00;;
43809;SDS011;29440;48.208;11.162;2022-08-19T13:55:13;1.35;;;1.00;;
43809;SDS011;29440;48.208;11.162;2022-08-19T13:57:39;1.60;;;1.00;;
43809;SDS011;29440;48.208;11.162;2022-08-19T14:00:11;1.45;;;1.13;;
43809;SDS011;29440;48.208;11.162;2022-08-19T14:02:39;1.42;;;1.05;;
43809;SDS011;29440;48.208;11.162;2022-08-19T14:05:06;1.38;;;0.90;;
43809;SDS011;29440;48.208;11.162;2022-08-19T14:07:35;1.70;;;1.20;;
43809;SDS011;29440;48.208;11.162;2022-08-19T14:10:01;1.75;;;1.30;;
43809;SDS011;29440;48.208;11.162;2022-08-19T14:12:28;1.83;;;1.35;;
43809;SDS011;29440;48.208;11.162;2022-08-19T14:14:54;2.83;;;1.40;;
43809;SDS011;29440;48.208;11.162;2022-08-19T14:17:20;2.30;;;1.80;;
43809;SDS011;29440;48.208;11.162;2022-08-19T14:19:46;2.85;;;1.38;;
43809;SDS011;29440;48.208;11.162;2022-08-19T14:22:12;2.05;;;1.65;;
43809;SDS011;29440;48.208;11.162;2022-08-19T14:24:38;2.03;;;1.42;;
43809;SDS011;29440;48.208;11.162;2022-08-19T14:27:04;2.42;;;1.63;;
43809;SDS011;29440;48.208;11.162;2022-08-19T14:29:31;3.30;;;2.08;;
43809;SDS011;29440;48.208;11.162;2022-08-19T14:31:56;5.25;;;2.30;;
43809;SDS011;29440;48.208;11.162;2022-08-19T14:34:23;3.42;;;2.72;;
43809;SDS011;29440;48.208;11.162;2022-08-19T14:36:50;3.70;;;2.90;;
43809;SDS011;29440;48.208;11.162;2022-08-19T14:39:15;3.70;;;2.80;;
43809;SDS011;29440;48.208;11.162;2022-08-19T14:41:41;5.57;;;3.13;;